Orbital elements of ARIANE 5 R/B
| Launched | 17 July 2004 |
| Flight ended | – |
| Launch site | Europe's Spaceport, Kourou, French Guiana |
| Owner | France |
| NORAD ID | 28379 |
| Date fetched |
Epoch osculation |
Inc. [°] |
Ecc. | RA asc node [hr] |
Arg Peri. [°] |
Mean anom [°] |
Mean motion [rev/day] |
Abs. mag |
| Date fetched |
Epoch osculation |
Inc. [°] |
Ecc. | RA asc node [hr] |
Arg Peri. [°] |
Mean anom [°] |
Mean motion [rev/day] |
Abs. mag |
| 2026 May 03 17:57 | 2026 Apr 30 12:12:06 | 7.2356 | 0.72867 | 20.7591 | 69.8206 | 353.0519 | 2.07981 | 4.243 |
| 2026 May 02 17:57 | 2026 Apr 30 12:12:06 | 7.2356 | 0.72867 | 20.7591 | 69.8206 | 353.0519 | 2.07981 | 4.243 |
| 2026 May 01 17:56 | 2026 Apr 30 12:12:06 | 7.2356 | 0.72867 | 20.7591 | 69.8206 | 353.0519 | 2.07981 | 4.243 |
| 2026 Apr 30 17:56 | 2026 Apr 30 12:12:06 | 7.2356 | 0.72867 | 20.7591 | 69.8206 | 353.0519 | 2.07981 | 4.243 |
| 2026 Apr 29 17:57 | 2026 Apr 24 07:42:35 | 7.2400 | 0.72869 | 20.8928 | 65.7700 | 353.0519 | 2.07981 | 4.243 |
| 2026 Apr 28 17:56 | 2026 Apr 24 07:42:35 | 7.2400 | 0.72869 | 20.8928 | 65.7700 | 353.0519 | 2.07981 | 4.243 |
| 2026 Apr 27 17:58 | 2026 Apr 24 07:42:35 | 7.2400 | 0.72869 | 20.8928 | 65.7700 | 353.0519 | 2.07981 | 4.243 |
| 2026 Apr 26 17:58 | 2026 Apr 24 07:42:35 | 7.2400 | 0.72869 | 20.8928 | 65.7700 | 353.0519 | 2.07981 | 4.243 |
| 2026 Apr 25 17:58 | 2026 Apr 24 07:42:35 | 7.2400 | 0.72869 | 20.8928 | 65.7700 | 353.0519 | 2.07981 | 4.243 |
| 2026 Apr 24 17:59 | 2026 Apr 24 07:42:35 | 7.2400 | 0.72869 | 20.8928 | 65.7700 | 353.0519 | 2.07981 | 4.243 |
| 2026 Apr 23 17:57 | 2026 Apr 18 16:56:38 | 7.2437 | 0.72871 | 21.0148 | 62.0834 | 353.0519 | 2.07981 | 4.243 |
| 2026 Apr 22 17:57 | 2026 Apr 18 16:56:38 | 7.2437 | 0.72871 | 21.0148 | 62.0834 | 353.0519 | 2.07981 | 4.243 |
| 2026 Apr 21 17:57 | 2026 Apr 18 16:56:38 | 7.2437 | 0.72871 | 21.0148 | 62.0834 | 353.0519 | 2.07981 | 4.243 |
| 2026 Apr 20 17:57 | 2026 Apr 18 16:56:38 | 7.2437 | 0.72871 | 21.0148 | 62.0834 | 353.0519 | 2.07981 | 4.243 |
| 2026 Apr 19 17:58 | 2026 Apr 18 16:56:38 | 7.2437 | 0.72871 | 21.0148 | 62.0834 | 353.0519 | 2.07981 | 4.243 |
| 2026 Apr 18 17:56 | 2026 Apr 12 22:03:39 | 7.2477 | 0.72874 | 21.1406 | 58.2821 | 353.0519 | 2.07981 | 4.243 |
| 2026 Apr 16 17:57 | 2026 Apr 12 22:03:39 | 7.2477 | 0.72874 | 21.1406 | 58.2821 | 353.0519 | 2.07981 | 4.243 |
| 2026 Apr 14 17:57 | 2026 Apr 12 22:03:39 | 7.2477 | 0.72874 | 21.1406 | 58.2821 | 353.0519 | 2.07981 | 4.243 |
| 2026 Apr 13 17:57 | 2026 Apr 12 22:03:39 | 7.2477 | 0.72874 | 21.1406 | 58.2821 | 353.0519 | 2.07981 | 4.243 |
| 2026 Apr 12 17:57 | 2026 Apr 08 11:37:53 | 7.2501 | 0.72876 | 21.2372 | 55.3672 | 353.0519 | 2.07981 | 4.243 |
| 2026 Apr 11 17:57 | 2026 Apr 08 11:37:53 | 7.2501 | 0.72876 | 21.2372 | 55.3672 | 353.0519 | 2.07981 | 4.243 |
| 2026 Apr 10 17:58 | 2026 Apr 08 11:37:53 | 7.2501 | 0.72876 | 21.2372 | 55.3672 | 353.0519 | 2.07981 | 4.243 |
| 2026 Apr 09 18:01 | 2026 Apr 08 11:37:53 | 7.2501 | 0.72876 | 21.2372 | 55.3672 | 353.0519 | 2.07981 | 4.243 |
| 2026 Apr 08 17:57 | 2026 Apr 08 11:37:53 | 7.2501 | 0.72876 | 21.2372 | 55.3672 | 353.0519 | 2.07981 | 4.243 |
| 2026 Apr 07 17:57 | 2026 Apr 02 05:29:05 | 7.2544 | 0.72877 | 21.3739 | 51.2477 | 353.0519 | 2.07981 | 4.243 |
| 2026 Apr 06 17:57 | 2026 Apr 02 05:29:05 | 7.2544 | 0.72877 | 21.3739 | 51.2477 | 353.0519 | 2.07981 | 4.243 |